Huvudsida
METAR-TAF:

METAR-TAF

Flygplatser :

Göteborg-Landvetter Airport

Göteborg-Landvetter, Sverige

latitud: 57-40N, longitud: 012-18E, höjd: 169 m

Aktuellt väderrapport

Denna rapport gjordes för 29 minuter sedan, klockan 04:20 UTC
Vind 7 kt från nord/nordost
Temperatur -1°C
Fuktighet 80%
Tryck 1031 hPa
Sikt 10 km eller mer
Inga moln under 1 500 m eller inga cumulonimbus

METAR: ESGG 150420Z 03007KT CAVOK M01/M04 Q1031 R03/09//95

Tid: 06:49 (04:49 UTC)

Väderprognos

Denna rapport gjordes för 5 timmar och 19 minuter sedan, klockan 23:30 UTC
Prognos gäller från 15 kl. 00 UTC till 15 kl. 24 UTC
Vind 6 kt från nord/nordost
Sikt 10 km eller mer
Inga moln under 1 500 m eller inga cumulonimbus

TAF: ESGG 142330Z 1500/1524 02006KT CAVOK

Aktuella väderrapporter och prognoser från 4000 flygplatser (METAR- och TAF-rapporter).

De tillgängliga stationerna syns som gula och röda prickar på kartan.

För musen över prickarna för att se namnen på stationerna.

Klicka sedan för att få väderrapporter och prognoser.

För att ändra kartan: Klicka på de gröna knapparna med ett svart kors på för att zooma in; den gröna knappen med ett streck på för att zooma ut; eller på de gröna pilarna för angränsande kartor.


METAR-TAF: